createdAt,value
2022-12-20T00:00:52.172Z,99417.63
2022-12-20T00:03:19.432Z,99405.84
2022-12-20T00:05:46.316Z,99409.50
2022-12-20T00:08:12.961Z,99407.22
2022-12-20T00:10:41.407Z,99401.13
2022-12-20T00:13:08.408Z,99417.00
2022-12-20T00:15:34.904Z,99420.56
2022-12-20T00:18:01.638Z,99411.84
2022-12-20T00:20:28.986Z,99397.91
2022-12-20T00:22:56.541Z,99389.41
2022-12-20T00:25:23.191Z,99387.53
2022-12-20T00:27:50.211Z,99377.97
2022-12-20T00:30:17.683Z,99378.91
2022-12-20T00:32:44.971Z,99368.66
2022-12-20T00:35:11.709Z,99367.09
2022-12-20T00:37:38.404Z,99376.00
2022-12-20T00:40:05.949Z,99372.69
2022-12-20T00:42:32.561Z,99378.97
2022-12-20T00:44:58.964Z,99373.94
2022-12-20T00:47:25.444Z,99374.91
2022-12-20T00:49:51.823Z,99385.50
2022-12-20T00:52:18.478Z,99389.09
2022-12-20T00:54:44.824Z,99394.53
2022-12-20T00:57:11.535Z,99382.13
2022-12-20T00:59:37.928Z,99385.94
2022-12-20T01:02:04.532Z,99379.03
2022-12-20T01:04:31.054Z,99370.56
2022-12-20T01:06:57.508Z,99376.50
2022-12-20T01:09:24.042Z,99377.03
2022-12-20T01:11:50.431Z,99375.00
2022-12-20T01:14:17.162Z,99361.06
2022-12-20T01:16:45.601Z,99359.78
2022-12-20T01:19:14.984Z,99359.44
2022-12-20T01:21:42.171Z,99363.75
2022-12-20T01:24:08.942Z,99377.69
2022-12-20T01:26:35.310Z,99387.13
2022-12-20T01:29:01.778Z,99409.06
2022-12-20T01:31:30.144Z,99400.25
2022-12-20T01:33:56.905Z,99382.28
2022-12-20T01:36:26.893Z,99377.69
2022-12-20T01:39:03.159Z,99392.63
2022-12-20T01:41:30.972Z,99396.06
2022-12-20T01:44:21.898Z,99373.16
2022-12-20T01:46:50.081Z,99381.16
2022-12-20T01:49:16.552Z,99370.06
2022-12-20T01:52:07.047Z,99361.56
2022-12-20T01:55:01.542Z,99352.16
2022-12-20T01:57:34.720Z,99345.94
2022-12-20T02:00:01.453Z,99348.69
2022-12-20T02:02:28.255Z,99356.44
2022-12-20T02:04:54.933Z,99351.19
2022-12-20T02:07:26.072Z,99354.63
2022-12-20T02:09:55.148Z,99351.19
2022-12-20T02:12:25.242Z,99348.47
2022-12-20T02:15:26.910Z,99345.63
2022-12-20T02:18:20.291Z,99340.47
2022-12-20T02:21:11.805Z,99337.00
2022-12-20T02:23:56.975Z,99334.16
2022-12-20T02:26:58.335Z,99323.75
2022-12-20T02:30:01.446Z,99327.25
2022-12-20T02:32:34.923Z,99322.47
2022-12-20T02:35:01.767Z,99307.69
2022-12-20T02:37:28.165Z,99306.75
2022-12-20T02:39:54.634Z,99302.31
2022-12-20T02:42:26.014Z,99303.19
2022-12-20T02:45:00.123Z,99310.09
2022-12-20T02:47:32.830Z,99315.56
2022-12-20T02:50:00.960Z,99309.25
2022-12-20T02:52:28.851Z,99308.19
2022-12-20T02:54:55.604Z,99311.06
2022-12-20T02:57:32.458Z,99304.94
2022-12-20T03:00:07.870Z,99298.03
2022-12-20T03:02:34.938Z,99301.50
2022-12-20T03:05:02.395Z,99298.88
2022-12-20T03:07:29.568Z,99303.19
2022-12-20T03:09:56.188Z,99302.94
2022-12-20T03:12:22.631Z,99317.75
2022-12-20T03:14:49.049Z,99310.09
2022-12-20T03:17:16.572Z,99289.34
2022-12-20T03:19:43.125Z,99291.00
2022-12-20T03:22:09.611Z,99294.34
2022-12-20T03:24:35.990Z,99282.91
2022-12-20T03:27:02.697Z,99268.88
2022-12-20T03:29:29.344Z,99276.22
2022-12-20T03:31:55.789Z,99275.53
2022-12-20T03:34:22.304Z,99283.28
2022-12-20T03:36:48.753Z,99283.28
2022-12-20T03:39:15.217Z,99279.94
2022-12-20T03:41:41.811Z,99269.78
2022-12-20T03:44:08.275Z,99278.72
2022-12-20T03:46:35.614Z,99273.00
2022-12-20T03:49:01.934Z,99267.13
2022-12-20T03:51:28.871Z,99267.47
2022-12-20T03:53:55.249Z,99276.41
2022-12-20T03:56:21.595Z,99276.84
2022-12-20T03:58:48.015Z,99274.56
2022-12-20T04:01:18.736Z,99289.25
2022-12-20T04:03:45.288Z,99278.13
2022-12-20T04:06:11.864Z,99266.81
2022-12-20T04:08:38.612Z,99257.16
2022-12-20T04:11:04.919Z,99256.44
2022-12-20T04:13:31.254Z,99258.09
2022-12-20T04:16:00.636Z,99249.19
2022-12-20T04:18:27.454Z,99252.88
2022-12-20T04:20:54.068Z,99252.88
2022-12-20T04:23:20.393Z,99255.47
2022-12-20T04:25:46.789Z,99248.00
2022-12-20T04:28:13.136Z,99227.47
2022-12-20T04:30:39.552Z,99217.72
2022-12-20T04:33:06.194Z,99213.19
2022-12-20T04:35:32.641Z,99213.91
2022-12-20T04:37:59.317Z,99219.06
2022-12-20T04:40:25.799Z,99230.47
2022-12-20T04:42:52.305Z,99225.84
2022-12-20T04:45:18.761Z,99235.03
2022-12-20T04:47:45.055Z,99235.25
2022-12-20T04:50:11.810Z,99241.25
2022-12-20T04:52:43.481Z,99238.75
2022-12-20T04:55:13.848Z,99235.91
2022-12-20T04:57:40.246Z,99220.84
2022-12-20T05:00:07.328Z,99220.16
2022-12-20T05:02:34.027Z,99230.66
2022-12-20T05:05:00.516Z,99233.50
2022-12-20T05:07:26.876Z,99248.56
2022-12-20T05:09:53.234Z,99231.03
2022-12-20T05:12:19.766Z,99225.78
2022-12-20T05:14:46.129Z,99218.38
2022-12-20T05:17:12.482Z,99219.69
2022-12-20T05:19:39.137Z,99217.06
2022-12-20T05:22:05.947Z,99211.84
2022-12-20T05:24:32.427Z,99226.50
2022-12-20T05:26:59.173Z,99211.38
2022-12-20T05:29:25.870Z,99207.06
2022-12-20T05:31:52.470Z,99208.19
2022-12-20T05:34:18.944Z,99201.69
2022-12-20T05:36:45.534Z,99204.31
2022-12-20T05:39:12.309Z,99202.75
2022-12-20T05:41:39.036Z,99194.56
2022-12-20T05:44:07.358Z,99189.53
2022-12-20T05:46:33.786Z,99189.66
2022-12-20T05:49:00.333Z,99194.88
2022-12-20T05:51:26.697Z,99200.13
2022-12-20T05:53:53.082Z,99196.44
2022-12-20T05:56:19.640Z,99173.94
2022-12-20T05:58:46.268Z,99152.56
2022-12-20T06:01:12.759Z,99176.28
2022-12-20T06:03:39.891Z,99186.78
2022-12-20T06:06:13.545Z,99185.03
2022-12-20T06:08:41.092Z,99176.56
2022-12-20T06:11:07.532Z,99169.16
2022-12-20T06:13:33.887Z,99171.19
2022-12-20T06:16:00.333Z,99167.97
2022-12-20T06:18:27.118Z,99162.47
2022-12-20T06:20:53.867Z,99171.50
2022-12-20T06:23:20.311Z,99173.44
2022-12-20T06:25:47.111Z,99182.25
2022-12-20T06:28:13.558Z,99177.97
2022-12-20T06:30:40.022Z,99179.88
2022-12-20T06:33:06.497Z,99173.91
2022-12-20T06:35:32.899Z,99179.03
2022-12-20T06:37:59.560Z,99182.59
2022-12-20T06:40:25.890Z,99182.50
2022-12-20T06:42:52.324Z,99185.13
2022-12-20T06:45:18.873Z,99189.66
2022-12-20T06:47:45.395Z,99188.59
2022-12-20T06:50:12.166Z,99183.34
2022-12-20T06:52:38.744Z,99193.69
2022-12-20T06:55:05.475Z,99191.06
2022-12-20T06:57:31.818Z,99200.59
2022-12-20T06:59:58.399Z,99194.44
2022-12-20T07:02:27.608Z,99200.59
2022-12-20T07:04:54.699Z,99197.06
2022-12-20T07:07:21.140Z,99195.13
2022-12-20T07:09:47.498Z,99191.44
2022-12-20T07:12:13.991Z,99183.69
2022-12-20T07:14:40.453Z,99177.25
2022-12-20T07:17:07.029Z,99179.66
2022-12-20T07:19:34.627Z,99184.66
2022-12-20T07:22:01.048Z,99186.31
2022-12-20T07:24:27.455Z,99175.72
2022-12-20T07:26:53.761Z,99181.06
2022-12-20T07:29:20.530Z,99188.00
2022-12-20T07:31:47.046Z,99195.16
2022-12-20T07:34:13.620Z,99181.94
2022-12-20T07:36:40.028Z,99195.66
2022-12-20T07:39:06.597Z,99187.41
2022-12-20T07:41:33.059Z,99184.53
2022-12-20T07:43:59.869Z,99183.47
2022-12-20T07:46:26.799Z,99186.84
2022-12-20T07:48:53.303Z,99176.78
2022-12-20T07:51:30.866Z,99168.91
2022-12-20T07:54:23.879Z,99176.56
2022-12-20T07:56:56.322Z,99172.75
2022-12-20T07:59:31.958Z,99187.16
2022-12-20T08:02:04.351Z,99185.03
2022-12-20T08:04:34.114Z,99180.63
2022-12-20T08:07:01.881Z,99179.66
2022-12-20T08:09:31.698Z,99183.44
2022-12-20T08:11:58.406Z,99181.88
2022-12-20T08:14:24.957Z,99188.88
2022-12-20T08:16:51.272Z,99189.59
2022-12-20T08:19:18.121Z,99184.03
2022-12-20T08:21:44.537Z,99181.25
2022-12-20T08:24:10.961Z,99180.41
2022-12-20T08:26:41.150Z,99187.72
2022-12-20T08:29:08.239Z,99186.16
2022-12-20T08:31:47.664Z,99181.97
2022-12-20T08:34:16.345Z,99183.88
2022-12-20T08:36:42.632Z,99183.72
2022-12-20T08:39:09.028Z,99182.72
2022-12-20T08:41:36.330Z,99171.34
2022-12-20T08:44:03.109Z,99175.78
2022-12-20T08:46:29.685Z,99166.59
2022-12-20T08:48:56.365Z,99161.91
2022-12-20T08:51:22.938Z,99162.25
2022-12-20T08:53:49.349Z,99162.31
2022-12-20T08:56:17.856Z,99162.63
2022-12-20T08:58:45.111Z,99170.28
2022-12-20T09:01:13.964Z,99168.38
2022-12-20T09:03:41.113Z,99163.94
2022-12-20T09:06:10.552Z,99175.03
2022-12-20T09:08:38.513Z,99177.81
2022-12-20T09:11:09.754Z,99178.50
2022-12-20T09:13:43.158Z,99185.50
2022-12-20T09:16:12.091Z,99191.34
2022-12-20T09:18:38.667Z,99199.03
2022-12-20T09:21:06.707Z,99208.44
2022-12-20T09:23:35.604Z,99221.50
2022-12-20T09:26:10.973Z,99239.50
2022-12-20T09:28:37.365Z,99254.19
2022-12-20T09:31:06.503Z,99260.72
2022-12-20T09:33:34.040Z,99265.16
2022-12-20T09:36:01.674Z,99270.44
2022-12-20T09:38:28.832Z,99265.41
2022-12-20T09:41:02.311Z,99266.59
2022-12-20T09:43:29.147Z,99278.13
2022-12-20T09:45:59.715Z,99284.13
2022-12-20T09:48:30.552Z,99292.75
2022-12-20T09:50:56.905Z,99289.09
2022-12-20T09:53:35.272Z,99287.38
2022-12-20T09:56:23.026Z,99309.88
2022-12-20T09:58:59.066Z,99327.09
2022-12-20T10:01:32.743Z,99318.16
2022-12-20T10:04:07.721Z,99328.50
2022-12-20T10:06:54.489Z,99354.09
2022-12-20T10:09:29.728Z,99378.25
2022-12-20T10:12:04.848Z,99375.38
2022-12-20T10:14:40.733Z,99380.16
2022-12-20T10:17:50.295Z,99388.50
2022-12-20T10:20:31.779Z,99405.56
2022-12-20T10:23:07.435Z,99431.78
2022-12-20T10:25:35.420Z,99453.63
2022-12-20T10:28:05.446Z,99455.78
2022-12-20T10:30:33.383Z,99468.78
2022-12-20T10:32:59.821Z,99474.84
2022-12-20T10:35:33.627Z,99466.41
2022-12-20T10:38:09.399Z,99462.13
2022-12-20T10:43:42.523Z,99460.94
2022-12-20T10:46:10.757Z,99458.06
2022-12-20T10:48:42.465Z,99439.81
2022-12-20T10:51:15.070Z,99427.72
2022-12-20T10:53:59.125Z,99408.38
2022-12-20T10:56:34.336Z,99391.28
2022-12-20T10:59:20.985Z,99371.53
2022-12-20T11:01:49.283Z,99361.16
2022-12-20T11:04:32.592Z,99340.16
2022-12-20T11:07:01.386Z,99330.34
2022-12-20T11:09:32.769Z,99323.41
2022-12-20T11:12:21.938Z,99317.88
2022-12-20T11:14:48.359Z,99319.31
2022-12-20T11:17:14.655Z,99311.78
2022-12-20T11:20:04.273Z,99314.41
2022-12-20T11:22:49.383Z,99315.41
2022-12-20T11:25:39.504Z,99299.03
2022-12-20T11:28:32.452Z,99304.59
2022-12-20T11:31:08.066Z,99295.69
2022-12-20T11:33:56.030Z,99295.84
2022-12-20T11:36:47.303Z,99296.22
2022-12-20T11:39:46.238Z,99276.38
2022-12-20T11:42:40.903Z,99255.47
2022-12-20T11:45:37.361Z,99251.44
2022-12-20T11:48:09.449Z,99250.06
2022-12-20T11:51:16.702Z,99245.94
2022-12-20T11:54:04.845Z,99254.72
2022-12-20T11:56:43.585Z,99255.69
2022-12-20T11:59:15.518Z,99260.28
2022-12-20T12:02:09.528Z,99286.28
2022-12-20T12:04:54.316Z,99302.38
2022-12-20T12:07:26.888Z,99310.97
2022-12-20T12:09:59.564Z,99301.97
2022-12-20T12:12:46.927Z,99310.88
2022-12-20T12:15:17.412Z,99333.81
2022-12-20T12:18:20.148Z,99332.16
2022-12-20T12:21:08.997Z,99342.88
2022-12-20T12:23:53.156Z,99349.22
2022-12-20T12:26:27.859Z,99341.44
2022-12-20T12:28:58.037Z,99342.28
2022-12-20T12:31:32.571Z,99345.19
2022-12-20T12:34:11.397Z,99328.66
2022-12-20T12:36:50.936Z,99335.91
2022-12-20T12:39:25.929Z,99335.19
2022-12-20T12:42:09.130Z,99330.50
2022-12-20T12:44:57.344Z,99328.69
2022-12-20T12:47:35.625Z,99340.06
2022-12-20T12:50:04.046Z,99346.47
2022-12-20T12:52:48.990Z,99344.09
2022-12-20T12:55:40.267Z,99340.50
2022-12-20T12:58:24.722Z,99357.03
2022-12-20T13:01:09.764Z,99344.09
2022-12-20T13:03:45.465Z,99344.78
2022-12-20T13:06:24.029Z,99326.75
2022-12-20T13:09:19.831Z,99327.28
2022-12-20T13:11:47.508Z,99322.00
2022-12-20T13:14:18.542Z,99312.97
2022-12-20T13:17:11.014Z,99298.53
2022-12-20T13:19:35.433Z,99295.88
2022-12-20T13:22:17.115Z,99295.72
2022-12-20T13:24:46.434Z,99287.81
2022-12-20T13:27:15.836Z,99291.16
2022-12-20T13:29:56.111Z,99291.13
2022-12-20T13:32:47.420Z,99282.81
2022-12-20T13:35:25.896Z,99273.78
2022-12-20T13:38:02.558Z,99265.03
2022-12-20T13:40:35.596Z,99258.19
2022-12-20T13:43:25.797Z,99265.81
2022-12-20T13:45:57.583Z,99269.72
2022-12-20T13:48:31.737Z,99271.81
2022-12-20T13:50:58.235Z,99270.44
2022-12-20T13:53:26.834Z,99265.97
2022-12-20T13:55:54.459Z,99258.78
2022-12-20T13:58:26.064Z,99250.03
2022-12-20T14:00:54.242Z,99235.84
2022-12-20T14:03:23.427Z,99209.72
2022-12-20T14:05:56.166Z,99203.16
2022-12-20T14:08:27.591Z,99188.56
2022-12-20T14:10:54.040Z,99177.59
2022-12-20T14:13:22.148Z,99172.31
2022-12-20T14:15:49.157Z,99165.75
2022-12-20T14:18:24.216Z,99153.50
2022-12-20T14:20:56.493Z,99154.63
2022-12-20T14:23:26.913Z,99167.00
2022-12-20T14:26:02.160Z,99189.94
2022-12-20T14:28:38.476Z,99183.56
2022-12-20T14:31:07.132Z,99179.69
2022-12-20T14:33:36.311Z,99169.25
2022-12-20T14:36:17.750Z,99155.78
2022-12-20T14:38:46.207Z,99155.38
2022-12-20T14:41:40.019Z,99148.19
2022-12-20T14:44:06.398Z,99145.41
2022-12-20T14:46:33.969Z,99134.72
2022-12-20T14:49:12.050Z,99117.47
2022-12-20T14:51:39.120Z,99114.16
2022-12-20T14:54:05.635Z,99120.81
2022-12-20T14:56:32.511Z,99120.97
2022-12-20T14:59:13.071Z,99108.88
2022-12-20T15:01:43.795Z,99112.50
2022-12-20T15:04:24.433Z,99098.34
2022-12-20T15:06:51.310Z,99092.78
2022-12-20T15:09:18.253Z,99088.63
2022-12-20T15:11:46.011Z,99078.50
2022-12-20T15:14:25.216Z,99078.50
2022-12-20T15:16:51.678Z,99077.41
2022-12-20T15:19:18.024Z,99060.16
2022-12-20T15:21:45.520Z,99063.66
2022-12-20T15:24:18.215Z,99055.06
2022-12-20T15:26:44.693Z,99043.13
2022-12-20T15:29:17.589Z,99042.16
2022-12-20T15:31:45.247Z,99038.81
2022-12-20T15:34:36.747Z,99022.44
2022-12-20T15:37:03.619Z,99024.53
2022-12-20T15:39:30.811Z,99009.69
2022-12-20T15:42:00.051Z,99002.34
2022-12-20T15:44:29.121Z,98993.03
2022-12-20T15:46:55.545Z,98996.66
2022-12-20T15:49:24.201Z,98984.28
2022-12-20T15:51:53.180Z,98986.25
2022-12-20T15:54:24.759Z,98967.53
2022-12-20T15:56:52.031Z,98959.59
2022-12-20T15:59:57.553Z,98942.66
2022-12-20T16:02:21.371Z,98937.25
2022-12-20T16:04:48.308Z,98943.22
2022-12-20T16:07:14.819Z,98955.44
2022-12-20T16:09:41.196Z,98950.00
2022-12-20T16:12:19.480Z,98985.56
2022-12-20T16:14:45.901Z,98980.97
2022-12-20T16:17:16.045Z,98973.13
2022-12-20T16:19:43.569Z,98984.22
2022-12-20T16:22:18.813Z,98990.59
2022-12-20T16:24:46.149Z,98997.72
2022-12-20T16:27:12.677Z,99014.94
2022-12-20T16:29:39.299Z,99002.72
2022-12-20T16:32:21.844Z,99005.34
2022-12-20T16:34:52.346Z,98989.25
2022-12-20T16:37:18.946Z,98992.84
2022-12-20T16:39:46.011Z,98992.03
2022-12-20T16:42:14.772Z,98997.47
2022-12-20T16:44:41.981Z,98986.25
2022-12-20T16:47:08.751Z,98977.75
2022-12-20T16:49:35.270Z,98973.44
2022-12-20T16:52:03.112Z,98970.53
2022-12-20T16:54:29.417Z,98970.25
2022-12-20T16:56:56.220Z,98972.47
2022-12-20T16:59:25.923Z,98965.78
2022-12-20T17:01:54.860Z,98967.75
2022-12-20T17:04:22.201Z,98969.59
2022-12-20T17:06:49.100Z,98968.59
2022-12-20T17:09:15.990Z,98969.44
2022-12-20T17:11:42.758Z,98970.41
2022-12-20T17:14:13.124Z,98956.78
2022-12-20T17:16:40.583Z,98960.41
2022-12-20T17:19:07.282Z,98965.53
2022-12-20T17:24:24.434Z,98960.94
2022-12-20T17:26:50.944Z,98965.28
2022-12-20T17:29:17.918Z,98949.72
2022-12-20T17:31:45.759Z,98948.09
2022-12-20T17:34:27.766Z,98935.19
2022-12-20T17:36:56.634Z,98925.75
2022-12-20T17:39:24.608Z,98908.13
2022-12-20T17:41:52.228Z,98905.63
2022-12-20T17:44:25.177Z,98907.72
2022-12-20T17:46:53.309Z,98901.59
2022-12-20T17:49:19.981Z,98897.19
2022-12-20T17:51:46.836Z,98879.72
2022-12-20T17:54:19.979Z,98879.16
2022-12-20T17:56:47.296Z,98880.44
2022-12-20T17:59:14.292Z,98874.47
2022-12-20T18:01:42.410Z,98864.38
2022-12-20T18:04:11.806Z,98832.59
2022-12-20T18:06:40.256Z,98820.41
2022-12-20T18:09:14.123Z,98810.56
2022-12-20T18:11:40.479Z,98807.38
2022-12-20T18:14:07.250Z,98809.03
2022-12-20T18:16:34.376Z,98788.25
2022-12-20T18:19:01.654Z,98790.75
2022-12-20T18:21:28.720Z,98782.13
2022-12-20T18:23:55.861Z,98778.56
2022-12-20T18:26:26.375Z,98782.44
2022-12-20T18:28:58.275Z,98782.88
2022-12-20T18:31:28.655Z,98780.53
2022-12-20T18:33:58.277Z,98779.53
2022-12-20T18:36:27.884Z,98794.38
2022-12-20T18:38:54.966Z,98784.13
2022-12-20T18:41:24.305Z,98788.16
2022-12-20T18:43:52.441Z,98786.06
2022-12-20T18:46:21.449Z,98780.25
2022-12-20T18:48:50.746Z,98779.81
2022-12-20T18:51:20.385Z,98780.25
2022-12-20T18:53:48.694Z,98778.47
2022-12-20T18:56:20.167Z,98783.56
2022-12-20T18:58:47.873Z,98780.25
2022-12-20T19:01:20.053Z,98773.88
2022-12-20T19:03:47.041Z,98758.38
2022-12-20T19:06:14.169Z,98760.56
2022-12-20T19:08:41.127Z,98737.84
2022-12-20T19:11:13.357Z,98725.91
2022-12-20T19:13:40.708Z,98730.59
2022-12-20T19:16:16.032Z,98750.47
2022-12-20T19:18:43.778Z,98753.66
2022-12-20T19:21:13.784Z,98756.69
2022-12-20T19:23:42.099Z,98755.28
2022-12-20T19:26:11.589Z,98764.03
2022-12-20T19:28:39.309Z,98757.22
2022-12-20T19:31:08.244Z,98754.31
2022-12-20T19:33:42.282Z,98774.56
2022-12-20T19:36:15.017Z,98772.91
2022-12-20T19:38:53.148Z,98757.22
2022-12-20T19:41:20.319Z,98751.81
2022-12-20T19:43:47.861Z,98743.66
2022-12-20T19:46:15.411Z,98741.72
2022-12-20T19:48:42.156Z,98735.75
2022-12-20T19:51:11.402Z,98738.66
2022-12-20T19:53:39.485Z,98724.50
2022-12-20T19:56:06.792Z,98716.75
2022-12-20T19:58:33.265Z,98716.75
2022-12-20T20:00:59.620Z,98721.22
2022-12-20T20:03:26.872Z,98723.28
2022-12-20T20:05:55.382Z,98713.97
2022-12-20T20:08:21.895Z,98708.41
2022-12-20T20:10:53.419Z,98710.69
2022-12-20T20:13:19.825Z,98705.41
2022-12-20T20:15:54.859Z,98706.75
2022-12-20T20:18:22.282Z,98719.13
2022-12-20T20:20:48.961Z,98709.69
2022-12-20T20:23:15.417Z,98719.25
2022-12-20T20:25:50.148Z,98726.47
2022-12-20T20:28:17.106Z,98731.88
2022-12-20T20:30:45.786Z,98739.34
2022-12-20T20:33:13.261Z,98744.06
2022-12-20T20:35:40.683Z,98745.03
2022-12-20T20:38:10.375Z,98750.31
2022-12-20T20:40:37.677Z,98748.13
2022-12-20T20:43:04.118Z,98760.59
2022-12-20T20:45:30.591Z,98767.78
2022-12-20T20:48:01.148Z,98775.53
2022-12-20T20:50:31.071Z,98780.53
2022-12-20T20:52:57.420Z,98788.25
2022-12-20T20:55:23.947Z,98788.84
2022-12-20T20:57:50.752Z,98786.19
2022-12-20T21:00:17.646Z,98789.94
2022-12-20T21:02:44.174Z,98787.84
2022-12-20T21:07:57.299Z,98789.38
2022-12-20T21:10:23.947Z,98788.41
2022-12-20T21:12:50.581Z,98787.56
2022-12-20T21:15:24.892Z,98782.72
2022-12-20T21:17:51.544Z,98790.50
2022-12-20T21:20:23.787Z,98788.53
2022-12-20T21:22:52.476Z,98788.25
2022-12-20T21:25:18.987Z,98785.19
2022-12-20T21:27:45.589Z,98777.41
2022-12-20T21:30:12.665Z,98785.03
2022-12-20T21:32:39.016Z,98777.69
2022-12-20T21:35:05.956Z,98788.47
2022-12-20T21:37:32.573Z,98782.69
2022-12-20T21:39:59.241Z,98771.28
2022-12-20T21:42:25.745Z,98779.06
2022-12-20T21:44:52.500Z,98775.44
2022-12-20T21:47:19.087Z,98774.34
2022-12-20T21:49:46.024Z,98770.38
2022-12-20T21:52:12.440Z,98765.22
2022-12-20T21:54:38.926Z,98764.41
2022-12-20T21:57:05.442Z,98771.59
2022-12-20T21:59:31.819Z,98763.06
2022-12-20T22:01:58.721Z,98766.41
2022-12-20T22:04:25.547Z,98764.03
2022-12-20T22:06:51.899Z,98764.03
2022-12-20T22:09:18.434Z,98759.31
2022-12-20T22:11:47.566Z,98747.41
2022-12-20T22:14:14.712Z,98741.75
2022-12-20T22:16:41.478Z,98732.88
2022-12-20T22:19:07.900Z,98745.19
2022-12-20T22:21:34.896Z,98744.78
2022-12-20T22:24:01.946Z,98751.31
2022-12-20T22:26:30.730Z,98753.94
2022-12-20T22:29:00.465Z,98763.91
2022-12-20T22:31:27.355Z,98755.72
2022-12-20T22:33:55.649Z,98756.97
2022-12-20T22:36:22.661Z,98766.41
2022-12-20T22:38:55.654Z,98763.34
2022-12-20T22:41:27.976Z,98756.31
2022-12-20T22:43:55.934Z,98751.03
2022-12-20T22:46:22.441Z,98758.09
2022-12-20T22:48:48.908Z,98761.16
2022-12-20T22:51:18.989Z,98756.16
2022-12-20T22:53:46.725Z,98761.44
2022-12-20T22:56:13.977Z,98765.63
2022-12-20T22:58:40.695Z,98762.44
2022-12-20T23:01:09.245Z,98759.53
2022-12-20T23:03:36.341Z,98763.66
2022-12-20T23:06:05.290Z,98760.19
2022-12-20T23:08:34.327Z,98739.13
2022-12-20T23:11:01.382Z,98727.22
2022-12-20T23:13:27.688Z,98727.50
2022-12-20T23:15:54.203Z,98715.97
2022-12-20T23:18:20.622Z,98708.06
2022-12-20T23:20:53.722Z,98709.31
2022-12-20T23:23:20.036Z,98700.44
2022-12-20T23:25:46.467Z,98703.34
2022-12-20T23:28:12.846Z,98708.63
2022-12-20T23:30:39.285Z,98717.66
2022-12-20T23:33:05.596Z,98712.66
2022-12-20T23:35:31.982Z,98709.56
2022-12-20T23:37:58.748Z,98699.56
2022-12-20T23:40:25.239Z,98710.09
2022-12-20T23:42:53.079Z,98708.69
2022-12-20T23:45:19.474Z,98709.00
2022-12-20T23:47:45.992Z,98713.88
2022-12-20T23:50:12.631Z,98707.91
2022-12-20T23:52:39.280Z,98714.84
2022-12-20T23:55:06.024Z,98717.63
2022-12-20T23:57:32.699Z,98713.19
2022-12-20T23:59:59.158Z,98715.66
